Hasty, AR (72640)

8:51 PM CDT on May 04, 2015 (GMT -0500)
Gaither | | Change Station
CLOSE
Current Station
Personal Weather Station
Location: Harrison, AR
Elevation: 1302 ft
Nearby Weather Stations

Elev 1302 ft 36.15 °N, 93.17 °W | Updated 6 minutes ago

Clear
Clear
66.9 °F
Feels Like 66.9 °F
N
1.1
Wind Variable Wind from SSW

Today
High -- | Low -- °F
--% Chance of Precip.
Yesterday
High -- | Low -- °F
Precip. -- in
6:16 AM 8:01 PM
Full, 99% visible
Pressure 30.05 in
Visibility 10.0 miles
Clouds Clear
Dew Point 56 °F
Humidity 68%
Rainfall 0.00 in
Snow Depth Not available.
UV 0 out of 12
Pollen 10.70 out of 12
Air Quality Not available.
Flu Activity No Activity
METAR KHRO 050053Z AUTO 17006KT 10SM CLR 21/13 A3007 RMK AO2 SLP174 T02110128

More Conditions Fewer Conditions

Pressure 30.05 in
Visibility 10.0 miles
Clouds Clear
Dew Point 56 °F
Humidity 68%
Rainfall 0.00 in
Snow Depth Not available.
UV 0 out of 12
Pollen 10.70 out of 12
Air Quality Not available.
Flu Activity No Activity
METAR KHRO 050053Z AUTO 17006KT 10SM CLR 21/13 A3007 RMK AO2 SLP174 T02110128

More Conditions Fewer Conditions

Nepal has a long way to go to dig out and rebuild from a devastating earthquake. We have teamed up with several charities and organizations to make contributing to the relief effort as easy as possible.
How you can help: Portlight Strategies | Red Cross

10-Day Weather Forecast

Almanac

Astronomy

May. 04, 2015 Rise Set
Actual Time
Civil Twilight
Nautical Twilight
Astronomical Twilight
Moon
Length of Visible Light
Length of Day
Tomorrow will be .
, % of the Moon is Illuminated

Today's Extremes

State Highs State Lows

Community

WunderPhotos

Upload Photos

1,818,779 photos uploaded!

WunderBlogs® & News

Nearby

Air Quality

  Air Quality AQ Index Pollutant
Not available.

Snow Depth

Station Depth Elevation

Earthquake Activity

City Distance Mag. Time & Date
Minimum magnitude displayed is 2.5.

Coastal Water Temperatures

Place Temperature

Stations

Nearby Weather Stations

Station Location Temp. Windchill Dew Point Humidity Wind Precip. Elev Updated Type